createdAt,value
2022-12-09T00:00:34.474Z,78.42
2022-12-09T00:03:02.199Z,79.23
2022-12-09T00:05:29.560Z,79.26
2022-12-09T00:07:57.100Z,78.74
2022-12-09T00:10:25.869Z,79.96
2022-12-09T00:12:56.373Z,80.20
2022-12-09T00:15:25.983Z,78.73
2022-12-09T00:17:53.348Z,78.57
2022-12-09T00:20:20.947Z,79.74
2022-12-09T00:22:48.208Z,79.41
2022-12-09T00:25:15.668Z,79.17
2022-12-09T00:27:43.204Z,78.88
2022-12-09T00:30:11.828Z,79.00
2022-12-09T00:32:39.807Z,78.97
2022-12-09T00:35:07.535Z,79.16
2022-12-09T00:37:35.511Z,79.14
2022-12-09T00:40:03.286Z,78.95
2022-12-09T00:42:30.950Z,78.53
2022-12-09T00:44:58.273Z,77.44
2022-12-09T00:47:25.979Z,77.02
2022-12-09T00:49:53.626Z,77.54
2022-12-09T00:52:21.022Z,79.17
2022-12-09T00:54:48.606Z,80.76
2022-12-09T00:57:15.960Z,81.40
2022-12-09T00:59:43.457Z,81.86
2022-12-09T01:02:11.627Z,82.67
2022-12-09T01:04:39.198Z,83.27
2022-12-09T01:07:07.033Z,83.49
2022-12-09T01:09:34.954Z,83.26
2022-12-09T01:12:04.044Z,83.01
2022-12-09T01:14:31.534Z,83.16
2022-12-09T01:16:58.897Z,82.80
2022-12-09T01:19:26.425Z,82.43
2022-12-09T01:21:55.601Z,82.63
2022-12-09T01:24:23.110Z,83.04
2022-12-09T01:26:50.724Z,83.73
2022-12-09T01:29:19.604Z,84.59
2022-12-09T01:31:47.771Z,83.81
2022-12-09T01:34:15.696Z,84.12
2022-12-09T01:36:43.411Z,84.83
2022-12-09T01:39:11.089Z,84.36
2022-12-09T01:41:38.862Z,85.38
2022-12-09T01:44:26.220Z,85.47
2022-12-09T01:47:02.417Z,86.29
2022-12-09T01:49:39.120Z,87.29
2022-12-09T01:52:32.856Z,86.07
2022-12-09T01:55:00.212Z,86.32
2022-12-09T01:57:27.708Z,86.40
2022-12-09T01:59:55.542Z,86.69
2022-12-09T02:02:24.215Z,86.96
2022-12-09T02:04:52.581Z,86.59
2022-12-09T02:07:20.521Z,87.03
2022-12-09T02:09:53.496Z,87.12
2022-12-09T02:12:53.043Z,86.95
2022-12-09T02:15:39.662Z,87.87
2022-12-09T02:18:42.931Z,87.08
2022-12-09T02:21:19.816Z,86.48
2022-12-09T02:24:03.163Z,86.04
2022-12-09T02:26:38.532Z,86.22
2022-12-09T02:29:08.615Z,87.13
2022-12-09T02:31:55.769Z,86.76
2022-12-09T02:34:27.461Z,86.89
2022-12-09T02:37:25.941Z,88.15
2022-12-09T02:40:18.660Z,88.63
2022-12-09T02:42:48.266Z,88.55
2022-12-09T02:45:17.446Z,89.01
2022-12-09T02:47:51.162Z,89.13
2022-12-09T02:50:22.862Z,89.07
2022-12-09T02:52:51.749Z,88.85
2022-12-09T02:55:21.039Z,88.89
2022-12-09T02:57:51.154Z,89.02
2022-12-09T03:00:20.635Z,89.20
2022-12-09T03:02:50.911Z,89.44
2022-12-09T03:05:41.439Z,89.03
2022-12-09T03:08:09.270Z,88.98
2022-12-09T03:10:52.186Z,88.79
2022-12-09T03:13:37.739Z,89.35
2022-12-09T03:16:16.907Z,88.43
2022-12-09T03:18:49.043Z,88.21
2022-12-09T03:21:18.850Z,88.67
2022-12-09T03:23:46.820Z,88.97
2022-12-09T03:26:15.798Z,88.47
2022-12-09T03:28:47.967Z,88.93
2022-12-09T03:31:19.166Z,89.11
2022-12-09T03:33:49.683Z,88.00
2022-12-09T03:36:17.969Z,87.88
2022-12-09T03:38:47.013Z,87.29
2022-12-09T03:41:28.615Z,87.14
2022-12-09T03:44:01.700Z,86.75
2022-12-09T03:46:30.565Z,87.63
2022-12-09T03:48:58.128Z,87.21
2022-12-09T03:51:49.070Z,87.05
2022-12-09T03:54:20.988Z,86.22
2022-12-09T03:56:53.329Z,86.62
2022-12-09T03:59:21.927Z,85.81
2022-12-09T04:01:49.579Z,85.96
2022-12-09T04:04:17.294Z,86.79
2022-12-09T04:06:44.841Z,86.50
2022-12-09T04:09:12.560Z,87.32
2022-12-09T04:11:40.033Z,87.37
2022-12-09T04:14:13.683Z,87.77
2022-12-09T04:16:43.512Z,87.85
2022-12-09T04:19:10.989Z,87.08
2022-12-09T04:21:38.637Z,86.65
2022-12-09T04:24:06.523Z,86.08
2022-12-09T04:26:34.367Z,85.41
2022-12-09T04:29:01.914Z,85.06
2022-12-09T04:31:29.388Z,84.33
2022-12-09T04:33:57.435Z,84.72
2022-12-09T04:36:25.103Z,84.45
2022-12-09T04:38:52.489Z,83.78
2022-12-09T04:41:19.854Z,83.48
2022-12-09T04:43:47.471Z,83.84
2022-12-09T04:46:19.532Z,84.95
2022-12-09T04:48:47.691Z,85.59
2022-12-09T04:51:16.343Z,85.60
2022-12-09T04:53:43.900Z,85.67
2022-12-09T04:56:14.561Z,85.04
2022-12-09T04:58:43.600Z,84.31
2022-12-09T05:01:13.757Z,84.63
2022-12-09T05:03:41.379Z,84.57
2022-12-09T05:06:12.616Z,84.80
2022-12-09T05:08:41.378Z,84.54
2022-12-09T05:11:09.186Z,84.39
2022-12-09T05:13:37.009Z,84.57
2022-12-09T05:16:13.747Z,84.06
2022-12-09T05:18:43.969Z,84.21
2022-12-09T05:21:15.144Z,84.29
2022-12-09T05:23:43.061Z,83.99
2022-12-09T05:26:13.923Z,84.01
2022-12-09T05:28:41.626Z,84.70
2022-12-09T05:31:18.151Z,84.74
2022-12-09T05:33:46.793Z,84.49
2022-12-09T05:36:17.069Z,83.85
2022-12-09T05:38:45.137Z,82.86
2022-12-09T05:41:12.770Z,83.57
2022-12-09T05:43:41.068Z,83.88
2022-12-09T05:46:09.426Z,83.38
2022-12-09T05:48:37.357Z,82.96
2022-12-09T05:51:06.564Z,82.99
2022-12-09T05:53:34.630Z,83.83
2022-12-09T05:56:02.385Z,83.71
2022-12-09T05:58:30.377Z,84.37
2022-12-09T06:01:04.948Z,84.06
2022-12-09T06:03:32.623Z,82.99
2022-12-09T06:06:14.878Z,82.99
2022-12-09T06:08:43.875Z,82.50
2022-12-09T06:11:14.606Z,82.90
2022-12-09T06:13:42.919Z,83.12
2022-12-09T06:16:11.389Z,83.19
2022-12-09T06:18:39.426Z,83.32
2022-12-09T06:21:09.258Z,83.08
2022-12-09T06:23:37.319Z,83.64
2022-12-09T06:26:05.659Z,82.57
2022-12-09T06:28:34.035Z,81.38
2022-12-09T06:31:01.703Z,81.61
2022-12-09T06:33:53.770Z,81.55
2022-12-09T06:36:16.960Z,81.69
2022-12-09T06:38:44.472Z,81.90
2022-12-09T06:41:14.430Z,81.47
2022-12-09T06:43:41.978Z,82.32
2022-12-09T06:46:14.613Z,82.52
2022-12-09T06:48:42.766Z,83.36
2022-12-09T06:51:10.539Z,83.20
2022-12-09T06:53:38.590Z,82.44
2022-12-09T06:56:11.902Z,82.41
2022-12-09T06:58:41.356Z,82.06
2022-12-09T07:01:13.750Z,80.75
2022-12-09T07:03:43.767Z,83.48
2022-12-09T07:06:23.606Z,83.44
2022-12-09T07:08:51.115Z,81.89
2022-12-09T07:11:18.486Z,80.97
2022-12-09T07:13:46.085Z,80.32
2022-12-09T07:16:13.586Z,78.42
2022-12-09T07:18:41.401Z,78.39
2022-12-09T07:21:15.133Z,78.34
2022-12-09T07:23:42.888Z,78.97
2022-12-09T07:26:10.792Z,78.27
2022-12-09T07:28:42.707Z,78.49
2022-12-09T07:31:22.648Z,77.63
2022-12-09T07:33:51.718Z,77.22
2022-12-09T07:36:21.582Z,78.36
2022-12-09T07:38:57.982Z,78.33
2022-12-09T07:41:25.930Z,78.17
2022-12-09T07:43:54.426Z,77.81
2022-12-09T07:46:23.848Z,78.44
2022-12-09T07:48:51.994Z,78.07
2022-12-09T07:51:19.878Z,78.20
2022-12-09T07:53:47.837Z,77.56
2022-12-09T07:56:16.969Z,76.04
2022-12-09T07:58:47.087Z,77.48
2022-12-09T08:01:16.095Z,77.42
2022-12-09T08:03:43.827Z,77.10
2022-12-09T08:06:14.040Z,76.70
2022-12-09T08:08:42.090Z,76.83
2022-12-09T08:11:11.990Z,76.56
2022-12-09T08:13:42.452Z,75.66
2022-12-09T08:16:12.413Z,75.47
2022-12-09T08:18:41.376Z,75.59
2022-12-09T08:21:14.023Z,75.94
2022-12-09T08:23:41.901Z,75.93
2022-12-09T08:26:10.643Z,78.85
2022-12-09T08:28:38.750Z,79.17
2022-12-09T08:31:12.474Z,79.05
2022-12-09T08:33:40.775Z,77.68
2022-12-09T08:36:13.946Z,77.88
2022-12-09T08:38:42.054Z,77.79
2022-12-09T08:41:38.928Z,77.39
2022-12-09T08:44:11.082Z,76.10
2022-12-09T08:46:42.891Z,76.04
2022-12-09T08:49:11.720Z,76.04
2022-12-09T08:51:39.685Z,76.47
2022-12-09T08:54:07.745Z,75.77
2022-12-09T08:56:35.382Z,75.75
2022-12-09T08:59:03.868Z,76.42
2022-12-09T09:01:35.340Z,76.96
2022-12-09T09:04:06.466Z,76.91
2022-12-09T09:06:34.647Z,77.18
2022-12-09T09:09:03.048Z,76.81
2022-12-09T09:11:30.895Z,76.58
2022-12-09T09:13:58.782Z,75.92
2022-12-09T09:16:27.406Z,76.34
2022-12-09T09:18:55.379Z,75.86
2022-12-09T09:21:26.847Z,75.69
2022-12-09T09:23:54.814Z,75.27
2022-12-09T09:26:25.970Z,76.00
2022-12-09T09:28:55.218Z,76.33
2022-12-09T09:31:25.880Z,76.73
2022-12-09T09:33:53.937Z,77.22
2022-12-09T09:36:24.115Z,78.06
2022-12-09T09:38:55.046Z,79.87
2022-12-09T09:41:42.032Z,80.23
2022-12-09T09:44:29.669Z,80.69
2022-12-09T09:46:58.533Z,80.62
2022-12-09T09:49:57.371Z,81.16
2022-12-09T09:52:27.547Z,82.24
2022-12-09T09:54:55.835Z,81.01
2022-12-09T09:57:35.994Z,80.71
2022-12-09T10:00:30.131Z,80.28
2022-12-09T10:03:14.922Z,79.34
2022-12-09T10:05:55.204Z,78.88
2022-12-09T10:08:29.031Z,78.64
2022-12-09T10:11:19.468Z,80.37
2022-12-09T10:14:07.031Z,80.00
2022-12-09T10:16:53.302Z,79.65
2022-12-09T10:19:30.084Z,81.32
2022-12-09T10:21:59.902Z,81.91
2022-12-09T10:24:35.876Z,82.95
2022-12-09T10:27:36.626Z,83.44
2022-12-09T10:30:10.954Z,82.88
2022-12-09T10:32:40.332Z,83.98
2022-12-09T10:35:34.655Z,84.24
2022-12-09T10:38:16.254Z,83.77
2022-12-09T10:40:47.124Z,83.39
2022-12-09T10:43:35.483Z,83.31
2022-12-09T10:46:21.195Z,81.51
2022-12-09T10:48:49.750Z,80.26
2022-12-09T10:51:28.005Z,80.28
2022-12-09T10:54:19.331Z,81.02
2022-12-09T10:57:23.654Z,82.96
2022-12-09T10:59:58.468Z,82.20
2022-12-09T11:02:27.852Z,81.07
2022-12-09T11:04:55.950Z,80.51
2022-12-09T11:07:28.110Z,79.23
2022-12-09T11:09:56.352Z,78.27
2022-12-09T11:12:27.439Z,80.46
2022-12-09T11:14:58.384Z,80.79
2022-12-09T11:17:35.927Z,80.65
2022-12-09T11:20:07.519Z,81.45
2022-12-09T11:22:41.278Z,82.55
2022-12-09T11:25:12.251Z,82.84
2022-12-09T11:27:48.088Z,81.84
2022-12-09T11:30:31.894Z,81.54
2022-12-09T11:33:07.864Z,82.20
2022-12-09T11:35:44.924Z,81.94
2022-12-09T11:38:22.927Z,81.59
2022-12-09T11:41:11.951Z,80.90
2022-12-09T11:43:48.380Z,79.73
2022-12-09T11:46:27.152Z,79.12
2022-12-09T11:48:54.465Z,79.07
2022-12-09T11:51:40.790Z,79.05
2022-12-09T11:54:45.702Z,78.74
2022-12-09T11:57:32.115Z,80.19
2022-12-09T12:00:04.657Z,79.86
2022-12-09T12:02:41.057Z,79.98
2022-12-09T12:05:27.511Z,82.46
2022-12-09T12:08:22.658Z,81.62
2022-12-09T12:10:52.862Z,82.06
2022-12-09T12:13:35.468Z,79.28
2022-12-09T12:16:11.510Z,78.42
2022-12-09T12:18:47.870Z,80.11
2022-12-09T12:21:33.530Z,80.96
2022-12-09T12:24:34.301Z,80.35
2022-12-09T12:27:15.687Z,79.72
2022-12-09T12:30:06.456Z,81.09
2022-12-09T12:33:53.103Z,80.55
2022-12-09T12:36:23.515Z,81.70
2022-12-09T12:38:58.809Z,82.29
2022-12-09T12:41:39.013Z,82.37
2022-12-09T12:44:45.113Z,81.62
2022-12-09T12:47:21.103Z,81.22
2022-12-09T12:50:03.768Z,82.32
2022-12-09T12:53:01.334Z,81.61
2022-12-09T12:55:43.912Z,81.02
2022-12-09T12:58:20.475Z,81.17
2022-12-09T13:01:00.802Z,82.35
2022-12-09T13:03:36.791Z,81.28
2022-12-09T13:06:04.447Z,81.19
2022-12-09T13:08:46.903Z,81.02
2022-12-09T13:11:18.585Z,81.61
2022-12-09T13:13:53.063Z,80.59
2022-12-09T13:16:30.107Z,81.34
2022-12-09T13:19:12.505Z,81.76
2022-12-09T13:21:40.177Z,82.12
2022-12-09T13:24:27.727Z,81.17
2022-12-09T13:27:18.676Z,81.67
2022-12-09T13:29:54.857Z,80.90
2022-12-09T13:33:15.797Z,79.91
2022-12-09T13:35:54.845Z,77.43
2022-12-09T13:38:36.484Z,78.56
2022-12-09T13:41:51.665Z,78.99
2022-12-09T13:44:19.369Z,80.40
2022-12-09T13:46:46.978Z,79.87
2022-12-09T13:49:21.682Z,79.47
2022-12-09T13:51:51.643Z,79.70
2022-12-09T13:54:19.808Z,78.73
2022-12-09T13:57:13.060Z,79.01
2022-12-09T13:59:54.266Z,79.57
2022-12-09T14:02:26.180Z,78.66
2022-12-09T14:04:53.435Z,77.74
2022-12-09T14:07:30.860Z,77.84
2022-12-09T14:10:00.294Z,78.26
2022-12-09T14:12:28.468Z,78.55
2022-12-09T14:14:57.843Z,77.95
2022-12-09T14:17:25.137Z,78.42
2022-12-09T14:20:01.408Z,78.34
2022-12-09T14:22:34.216Z,77.97
2022-12-09T14:25:26.130Z,77.40
2022-12-09T14:28:11.968Z,76.72
2022-12-09T14:30:48.927Z,76.37
2022-12-09T14:33:44.750Z,77.85
2022-12-09T14:36:15.178Z,76.47
2022-12-09T14:39:16.080Z,76.85
2022-12-09T14:41:48.382Z,76.73
2022-12-09T14:44:36.169Z,76.07
2022-12-09T14:47:16.851Z,77.50
2022-12-09T14:49:49.158Z,76.57
2022-12-09T14:52:31.216Z,76.58
2022-12-09T14:55:01.781Z,75.98
2022-12-09T14:57:34.633Z,76.17
2022-12-09T15:00:02.216Z,76.77
2022-12-09T15:02:31.180Z,76.27
2022-12-09T15:05:01.516Z,76.74
2022-12-09T15:07:32.975Z,76.76
2022-12-09T15:10:03.390Z,77.53
2022-12-09T15:12:42.422Z,78.22
2022-12-09T15:15:22.420Z,78.73
2022-12-09T15:17:58.931Z,78.74
2022-12-09T15:20:35.142Z,78.50
2022-12-09T15:23:06.083Z,78.46
2022-12-09T15:25:37.082Z,79.20
2022-12-09T15:28:13.049Z,79.77
2022-12-09T15:30:40.287Z,79.50
2022-12-09T15:33:19.783Z,79.26
2022-12-09T15:35:57.595Z,78.55
2022-12-09T15:38:27.654Z,78.78
2022-12-09T15:41:15.007Z,77.83
2022-12-09T15:43:42.848Z,77.99
2022-12-09T15:46:11.214Z,78.39
2022-12-09T15:48:43.161Z,77.38
2022-12-09T15:51:15.324Z,77.38
2022-12-09T15:53:53.521Z,77.69
2022-12-09T15:56:38.683Z,77.58
2022-12-09T15:59:14.198Z,77.36
2022-12-09T16:01:47.308Z,77.59
2022-12-09T16:04:17.628Z,76.37
2022-12-09T16:06:45.011Z,76.80
2022-12-09T16:09:13.859Z,77.51
2022-12-09T16:11:45.507Z,78.18
2022-12-09T16:14:13.592Z,77.66
2022-12-09T16:16:45.470Z,78.01
2022-12-09T16:19:25.022Z,78.39
2022-12-09T16:22:06.731Z,78.57
2022-12-09T16:25:06.284Z,78.78
2022-12-09T16:27:25.798Z,78.96
2022-12-09T16:29:56.957Z,81.51
2022-12-09T16:32:34.161Z,81.17
2022-12-09T16:35:11.115Z,81.62
2022-12-09T16:37:43.947Z,81.70
2022-12-09T16:40:23.653Z,82.03
2022-12-09T16:42:53.766Z,82.29
2022-12-09T16:45:30.608Z,82.21
2022-12-09T16:47:59.138Z,83.20
2022-12-09T16:50:30.498Z,82.73
2022-12-09T16:52:58.746Z,83.16
2022-12-09T16:55:28.232Z,83.38
2022-12-09T16:57:59.000Z,82.80
2022-12-09T17:00:26.525Z,82.29
2022-12-09T17:03:05.680Z,82.97
2022-12-09T17:05:33.110Z,83.15
2022-12-09T17:08:00.568Z,82.93
2022-12-09T17:10:27.877Z,82.46
2022-12-09T17:12:55.281Z,82.30
2022-12-09T17:15:22.616Z,82.18
2022-12-09T17:17:50.032Z,82.02
2022-12-09T17:20:17.302Z,81.44
2022-12-09T17:22:44.535Z,82.22
2022-12-09T17:25:11.803Z,83.28
2022-12-09T17:27:39.291Z,84.96
2022-12-09T17:30:07.258Z,84.34
2022-12-09T17:32:34.652Z,84.45
2022-12-09T17:35:01.931Z,84.09
2022-12-09T17:37:29.268Z,82.66
2022-12-09T17:40:03.237Z,83.63
2022-12-09T17:42:31.202Z,83.54
2022-12-09T17:44:58.659Z,83.12
2022-12-09T17:47:27.172Z,84.07
2022-12-09T17:49:54.420Z,84.27
2022-12-09T17:52:21.699Z,84.80
2022-12-09T17:54:49.006Z,85.45
2022-12-09T17:57:16.254Z,84.65
2022-12-09T17:59:43.454Z,83.10
2022-12-09T18:02:11.481Z,83.18
2022-12-09T18:04:38.865Z,83.10
2022-12-09T18:07:06.088Z,82.72
2022-12-09T18:09:33.600Z,82.82
2022-12-09T18:12:00.941Z,83.00
2022-12-09T18:14:28.438Z,83.43
2022-12-09T18:16:55.941Z,83.31
2022-12-09T18:19:24.957Z,81.83
2022-12-09T18:21:55.585Z,81.61
2022-12-09T18:24:23.146Z,82.17
2022-12-09T18:26:50.806Z,82.39
2022-12-09T18:29:18.415Z,82.09
2022-12-09T18:31:46.145Z,81.94
2022-12-09T18:34:13.973Z,83.11
2022-12-09T18:36:41.324Z,83.08
2022-12-09T18:39:08.704Z,82.41
2022-12-09T18:41:36.099Z,82.15
2022-12-09T18:44:06.726Z,82.23
2022-12-09T18:46:38.924Z,82.24
2022-12-09T18:49:08.936Z,83.18
2022-12-09T18:51:36.450Z,82.96
2022-12-09T18:54:04.509Z,84.63
2022-12-09T18:56:32.451Z,84.63
2022-12-09T18:59:08.614Z,85.45
2022-12-09T19:01:40.362Z,85.32
2022-12-09T19:04:22.943Z,85.64
2022-12-09T19:06:52.288Z,86.05
2022-12-09T19:09:22.590Z,84.69
2022-12-09T19:11:50.995Z,84.71
2022-12-09T19:14:19.541Z,83.73
2022-12-09T19:16:47.085Z,84.72
2022-12-09T19:19:16.893Z,86.23
2022-12-09T19:21:45.038Z,86.96
2022-12-09T19:24:24.071Z,86.72
2022-12-09T19:26:53.782Z,86.74
2022-12-09T19:29:21.709Z,85.64
2022-12-09T19:31:50.347Z,86.04
2022-12-09T19:34:17.560Z,85.93
2022-12-09T19:36:45.992Z,84.85
2022-12-09T19:39:14.375Z,84.63
2022-12-09T19:41:43.095Z,84.38
2022-12-09T19:44:15.388Z,83.92
2022-12-09T19:46:45.830Z,83.61
2022-12-09T19:49:15.050Z,83.90
2022-12-09T19:51:42.909Z,83.59
2022-12-09T19:54:10.624Z,84.78
2022-12-09T19:56:38.014Z,85.06
2022-12-09T19:59:06.163Z,84.50
2022-12-09T20:01:36.017Z,84.18
2022-12-09T20:04:48.200Z,83.62
2022-12-09T20:07:10.547Z,82.70
2022-12-09T20:09:38.012Z,82.31
2022-12-09T20:12:05.632Z,82.66
2022-12-09T20:14:33.038Z,82.84
2022-12-09T20:17:00.564Z,85.11
2022-12-09T20:19:27.931Z,85.17
2022-12-09T20:21:55.235Z,85.03
2022-12-09T20:24:22.774Z,85.38
2022-12-09T20:26:50.180Z,84.98
2022-12-09T20:29:17.587Z,84.64
2022-12-09T20:31:45.064Z,84.57
2022-12-09T20:34:14.895Z,84.47
2022-12-09T20:36:43.580Z,84.50
2022-12-09T20:39:17.566Z,83.54
2022-12-09T20:41:45.316Z,82.64
2022-12-09T20:44:13.737Z,83.16
2022-12-09T20:46:45.971Z,83.12
2022-12-09T20:49:13.376Z,82.93
2022-12-09T20:51:48.648Z,82.25
2022-12-09T20:54:16.313Z,81.96
2022-12-09T20:56:43.920Z,80.81
2022-12-09T20:59:14.470Z,80.25
2022-12-09T21:01:43.453Z,79.46
2022-12-09T21:04:10.892Z,79.40
2022-12-09T21:06:39.466Z,78.26
2022-12-09T21:09:09.803Z,78.18
2022-12-09T21:11:38.700Z,77.68
2022-12-09T21:14:09.624Z,77.21
2022-12-09T21:16:41.482Z,76.12
2022-12-09T21:19:12.691Z,76.13
2022-12-09T21:21:41.632Z,76.25
2022-12-09T21:24:12.160Z,78.71
2022-12-09T21:26:40.408Z,80.13
2022-12-09T21:29:08.563Z,82.48
2022-12-09T21:31:38.127Z,83.44
2022-12-09T21:34:06.922Z,83.51
2022-12-09T21:36:36.462Z,83.40
2022-12-09T21:39:04.816Z,82.93
2022-12-09T21:41:34.387Z,82.96
2022-12-09T21:44:02.450Z,84.58
2022-12-09T21:46:35.413Z,84.93
2022-12-09T21:49:04.581Z,84.98
2022-12-09T21:51:35.579Z,85.20
2022-12-09T21:54:03.666Z,86.34
2022-12-09T21:56:32.830Z,86.14
2022-12-09T21:59:00.507Z,84.85
2022-12-09T22:01:34.062Z,84.54
2022-12-09T22:04:02.630Z,84.69
2022-12-09T22:06:30.520Z,83.84
2022-12-09T22:08:59.765Z,82.96
2022-12-09T22:11:29.793Z,82.34
2022-12-09T22:13:58.534Z,81.79
2022-12-09T22:16:28.712Z,81.53
2022-12-09T22:18:57.884Z,82.03
2022-12-09T22:21:28.226Z,82.65
2022-12-09T22:24:02.891Z,82.75
2022-12-09T22:26:30.945Z,82.69
2022-12-09T22:29:02.576Z,82.21
2022-12-09T22:31:32.771Z,82.08
2022-12-09T22:34:12.120Z,82.42
2022-12-09T22:36:41.055Z,81.05
2022-12-09T22:39:12.125Z,80.71
2022-12-09T22:41:39.482Z,81.83
2022-12-09T22:44:06.821Z,81.70
2022-12-09T22:46:34.410Z,81.39
2022-12-09T22:49:04.703Z,80.33
2022-12-09T22:51:34.734Z,82.19
2022-12-09T22:54:04.773Z,84.68
2022-12-09T22:56:32.007Z,84.90
2022-12-09T22:59:00.155Z,84.83
2022-12-09T23:01:29.543Z,85.12
2022-12-09T23:03:58.296Z,85.49
2022-12-09T23:06:26.667Z,85.60
2022-12-09T23:08:54.179Z,84.56
2022-12-09T23:11:26.180Z,87.31
2022-12-09T23:13:55.016Z,88.10
2022-12-09T23:16:24.014Z,88.64
2022-12-09T23:18:52.445Z,88.38
2022-12-09T23:21:27.480Z,88.44
2022-12-09T23:23:56.850Z,89.53
2022-12-09T23:26:28.235Z,89.39
2022-12-09T23:28:58.400Z,89.26
2022-12-09T23:31:32.565Z,88.56
2022-12-09T23:34:00.821Z,88.75
2022-12-09T23:36:34.483Z,87.85
2022-12-09T23:39:04.312Z,87.41
2022-12-09T23:41:31.559Z,86.73
2022-12-09T23:43:58.724Z,85.54
2022-12-09T23:46:29.566Z,84.67
2022-12-09T23:48:57.303Z,84.25
2022-12-09T23:51:27.254Z,85.22
2022-12-09T23:53:55.669Z,85.51
2022-12-09T23:56:24.506Z,85.79
2022-12-09T23:58:56.512Z,85.74
